sensor_id;sensor_type;location;lat;lon;timestamp;temperature;humidity
11239;DHT22;5677;48.488;13.436;2024-03-02T00:00:14;11.40;50.50
11239;DHT22;5677;48.488;13.436;2024-03-02T00:02:43;11.40;50.60
11239;DHT22;5677;48.488;13.436;2024-03-02T00:05:11;11.40;50.60
11239;DHT22;5677;48.488;13.436;2024-03-02T00:07:40;11.40;50.60
11239;DHT22;5677;48.488;13.436;2024-03-02T00:10:09;11.40;50.60
11239;DHT22;5677;48.488;13.436;2024-03-02T00:12:37;11.40;50.60
11239;DHT22;5677;48.488;13.436;2024-03-02T00:15:05;11.40;50.60
11239;DHT22;5677;48.488;13.436;2024-03-02T00:17:33;11.40;50.60
11239;DHT22;5677;48.488;13.436;2024-03-02T00:20:03;11.40;50.60
11239;DHT22;5677;48.488;13.436;2024-03-02T00:22:30;11.40;50.60
11239;DHT22;5677;48.488;13.436;2024-03-02T00:24:57;11.40;50.60
11239;DHT22;5677;48.488;13.436;2024-03-02T00:27:25;11.40;50.60
11239;DHT22;5677;48.488;13.436;2024-03-02T00:29:51;11.40;50.50
11239;DHT22;5677;48.488;13.436;2024-03-02T00:32:18;11.40;50.50
11239;DHT22;5677;48.488;13.436;2024-03-02T00:34:45;11.40;50.50
11239;DHT22;5677;48.488;13.436;2024-03-02T00:37:14;11.40;50.60
11239;DHT22;5677;48.488;13.436;2024-03-02T00:39:41;11.40;50.60
11239;DHT22;5677;48.488;13.436;2024-03-02T00:42:07;11.40;50.60
11239;DHT22;5677;48.488;13.436;2024-03-02T00:44:34;11.40;50.60
11239;DHT22;5677;48.488;13.436;2024-03-02T00:47:03;11.40;50.60
11239;DHT22;5677;48.488;13.436;2024-03-02T00:49:29;11.40;50.60
11239;DHT22;5677;48.488;13.436;2024-03-02T00:51:56;11.40;50.60
11239;DHT22;5677;48.488;13.436;2024-03-02T00:54:26;11.40;50.60
11239;DHT22;5677;48.488;13.436;2024-03-02T00:56:54;11.40;50.60
11239;DHT22;5677;48.488;13.436;2024-03-02T00:59:22;11.40;50.60
11239;DHT22;5677;48.488;13.436;2024-03-02T01:01:49;11.40;50.60
11239;DHT22;5677;48.488;13.436;2024-03-02T01:04:16;11.40;50.60
11239;DHT22;5677;48.488;13.436;2024-03-02T01:06:43;11.40;50.60
11239;DHT22;5677;48.488;13.436;2024-03-02T01:09:11;11.40;50.60
11239;DHT22;5677;48.488;13.436;2024-03-02T01:11:40;11.40;50.60
11239;DHT22;5677;48.488;13.436;2024-03-02T01:14:07;11.40;50.60
11239;DHT22;5677;48.488;13.436;2024-03-02T01:16:33;11.40;50.60
11239;DHT22;5677;48.488;13.436;2024-03-02T01:19:00;11.40;50.60
11239;DHT22;5677;48.488;13.436;2024-03-02T01:21:27;11.40;50.60
11239;DHT22;5677;48.488;13.436;2024-03-02T01:23:53;11.40;50.60
11239;DHT22;5677;48.488;13.436;2024-03-02T01:26:20;11.40;50.60
11239;DHT22;5677;48.488;13.436;2024-03-02T01:28:48;11.40;50.60
11239;DHT22;5677;48.488;13.436;2024-03-02T01:31:15;11.40;50.60
11239;DHT22;5677;48.488;13.436;2024-03-02T01:33:41;11.40;50.60
11239;DHT22;5677;48.488;13.436;2024-03-02T01:36:08;11.40;50.60
11239;DHT22;5677;48.488;13.436;2024-03-02T01:38:35;11.40;50.60
11239;DHT22;5677;48.488;13.436;2024-03-02T01:41:02;11.40;50.60
11239;DHT22;5677;48.488;13.436;2024-03-02T01:43:29;11.40;50.60
11239;DHT22;5677;48.488;13.436;2024-03-02T01:45:57;11.40;50.60
11239;DHT22;5677;48.488;13.436;2024-03-02T01:48:24;11.40;50.60
11239;DHT22;5677;48.488;13.436;2024-03-02T01:50:50;11.40;50.70
11239;DHT22;5677;48.488;13.436;2024-03-02T01:53:17;11.30;50.60
11239;DHT22;5677;48.488;13.436;2024-03-02T01:55:44;11.40;50.60
11239;DHT22;5677;48.488;13.436;2024-03-02T01:58:11;11.40;50.60
11239;DHT22;5677;48.488;13.436;2024-03-02T02:00:37;11.40;50.60
11239;DHT22;5677;48.488;13.436;2024-03-02T02:03:06;11.30;50.60
11239;DHT22;5677;48.488;13.436;2024-03-02T02:05:33;11.40;50.70
11239;DHT22;5677;48.488;13.436;2024-03-02T02:08:01;11.30;50.60
11239;DHT22;5677;48.488;13.436;2024-03-02T02:10:27;11.30;50.60
11239;DHT22;5677;48.488;13.436;2024-03-02T02:12:54;11.40;50.60
11239;DHT22;5677;48.488;13.436;2024-03-02T02:15:28;11.40;50.60
11239;DHT22;5677;48.488;13.436;2024-03-02T02:17:55;11.40;50.70
11239;DHT22;5677;48.488;13.436;2024-03-02T02:20:24;11.30;50.70
11239;DHT22;5677;48.488;13.436;2024-03-02T02:22:58;11.30;50.70
11239;DHT22;5677;48.488;13.436;2024-03-02T02:25:26;11.30;50.60
11239;DHT22;5677;48.488;13.436;2024-03-02T02:27:53;11.30;50.60
11239;DHT22;5677;48.488;13.436;2024-03-02T02:30:20;11.30;50.60
11239;DHT22;5677;48.488;13.436;2024-03-02T02:32:48;11.30;50.60
11239;DHT22;5677;48.488;13.436;2024-03-02T02:35:14;11.30;50.60
11239;DHT22;5677;48.488;13.436;2024-03-02T02:37:42;11.30;50.70
11239;DHT22;5677;48.488;13.436;2024-03-02T02:40:11;11.30;50.70
11239;DHT22;5677;48.488;13.436;2024-03-02T02:42:38;11.30;50.70
11239;DHT22;5677;48.488;13.436;2024-03-02T02:45:05;11.30;50.70
11239;DHT22;5677;48.488;13.436;2024-03-02T02:47:32;11.30;50.70
11239;DHT22;5677;48.488;13.436;2024-03-02T02:50:01;11.30;50.70
11239;DHT22;5677;48.488;13.436;2024-03-02T02:52:31;11.30;50.70
11239;DHT22;5677;48.488;13.436;2024-03-02T02:54:58;11.30;50.70
11239;DHT22;5677;48.488;13.436;2024-03-02T02:57:26;11.30;50.70
11239;DHT22;5677;48.488;13.436;2024-03-02T02:59:55;11.40;50.70
11239;DHT22;5677;48.488;13.436;2024-03-02T03:02:22;11.30;50.70
11239;DHT22;5677;48.488;13.436;2024-03-02T03:04:49;11.30;50.60
11239;DHT22;5677;48.488;13.436;2024-03-02T03:07:16;11.30;50.70
11239;DHT22;5677;48.488;13.436;2024-03-02T03:09:42;11.30;50.70
11239;DHT22;5677;48.488;13.436;2024-03-02T03:12:09;11.30;50.70
11239;DHT22;5677;48.488;13.436;2024-03-02T03:14:37;11.30;50.70
11239;DHT22;5677;48.488;13.436;2024-03-02T03:17:04;11.30;50.70
11239;DHT22;5677;48.488;13.436;2024-03-02T03:19:32;11.30;50.70
11239;DHT22;5677;48.488;13.436;2024-03-02T03:21:59;11.30;50.70
11239;DHT22;5677;48.488;13.436;2024-03-02T03:24:26;11.30;50.70
11239;DHT22;5677;48.488;13.436;2024-03-02T03:26:52;11.30;50.70
11239;DHT22;5677;48.488;13.436;2024-03-02T03:29:19;11.30;50.70
11239;DHT22;5677;48.488;13.436;2024-03-02T03:31:47;11.30;50.70
11239;DHT22;5677;48.488;13.436;2024-03-02T03:34:14;11.30;50.70
11239;DHT22;5677;48.488;13.436;2024-03-02T03:36:41;11.30;50.70
11239;DHT22;5677;48.488;13.436;2024-03-02T03:39:08;11.30;50.70
11239;DHT22;5677;48.488;13.436;2024-03-02T03:41:35;11.30;50.70
11239;DHT22;5677;48.488;13.436;2024-03-02T03:44:02;11.30;50.70
11239;DHT22;5677;48.488;13.436;2024-03-02T03:46:30;11.30;50.70
11239;DHT22;5677;48.488;13.436;2024-03-02T03:48:58;11.20;50.60
11239;DHT22;5677;48.488;13.436;2024-03-02T03:51:24;11.30;50.70
11239;DHT22;5677;48.488;13.436;2024-03-02T03:53:51;11.30;50.70
11239;DHT22;5677;48.488;13.436;2024-03-02T03:56:18;11.30;50.70
11239;DHT22;5677;48.488;13.436;2024-03-02T03:58:45;11.30;50.70
11239;DHT22;5677;48.488;13.436;2024-03-02T04:01:11;11.30;50.80
11239;DHT22;5677;48.488;13.436;2024-03-02T04:03:38;11.30;50.70
11239;DHT22;5677;48.488;13.436;2024-03-02T04:06:06;11.20;50.60
11239;DHT22;5677;48.488;13.436;2024-03-02T04:08:33;11.20;50.70
11239;DHT22;5677;48.488;13.436;2024-03-02T04:11:00;11.30;50.70
11239;DHT22;5677;48.488;13.436;2024-03-02T04:13:28;11.20;50.70
11239;DHT22;5677;48.488;13.436;2024-03-02T04:15:54;11.20;50.60
11239;DHT22;5677;48.488;13.436;2024-03-02T04:18:21;11.30;50.80
11239;DHT22;5677;48.488;13.436;2024-03-02T04:20:48;11.30;50.80
11239;DHT22;5677;48.488;13.436;2024-03-02T04:23:16;11.20;50.70
11239;DHT22;5677;48.488;13.436;2024-03-02T04:25:43;11.20;50.70
11239;DHT22;5677;48.488;13.436;2024-03-02T04:28:09;11.20;50.70
11239;DHT22;5677;48.488;13.436;2024-03-02T04:30:37;11.20;50.70
11239;DHT22;5677;48.488;13.436;2024-03-02T04:33:04;11.20;50.70
11239;DHT22;5677;48.488;13.436;2024-03-02T04:35:32;11.20;50.70
11239;DHT22;5677;48.488;13.436;2024-03-02T04:37:59;11.20;50.70
11239;DHT22;5677;48.488;13.436;2024-03-02T04:40:27;11.20;50.70
11239;DHT22;5677;48.488;13.436;2024-03-02T04:42:54;11.20;50.70
11239;DHT22;5677;48.488;13.436;2024-03-02T04:45:21;11.20;50.70
11239;DHT22;5677;48.488;13.436;2024-03-02T04:47:47;11.20;50.70
11239;DHT22;5677;48.488;13.436;2024-03-02T04:50:14;11.20;50.70
11239;DHT22;5677;48.488;13.436;2024-03-02T04:52:41;11.20;50.70
11239;DHT22;5677;48.488;13.436;2024-03-02T04:55:08;11.20;50.70
11239;DHT22;5677;48.488;13.436;2024-03-02T04:57:56;11.20;50.70
11239;DHT22;5677;48.488;13.436;2024-03-02T05:00:23;11.20;50.80
11239;DHT22;5677;48.488;13.436;2024-03-02T05:02:49;11.20;50.80
11239;DHT22;5677;48.488;13.436;2024-03-02T05:05:16;11.20;50.70
11239;DHT22;5677;48.488;13.436;2024-03-02T05:07:43;11.20;50.80
11239;DHT22;5677;48.488;13.436;2024-03-02T05:10:10;11.20;50.80
11239;DHT22;5677;48.488;13.436;2024-03-02T05:12:38;11.20;50.80
11239;DHT22;5677;48.488;13.436;2024-03-02T05:15:23;11.20;50.80
11239;DHT22;5677;48.488;13.436;2024-03-02T05:17:50;11.20;50.80
11239;DHT22;5677;48.488;13.436;2024-03-02T05:20:17;11.20;50.80
11239;DHT22;5677;48.488;13.436;2024-03-02T05:22:44;11.20;50.80
11239;DHT22;5677;48.488;13.436;2024-03-02T05:25:11;11.20;50.80
11239;DHT22;5677;48.488;13.436;2024-03-02T05:27:37;11.20;50.90
11239;DHT22;5677;48.488;13.436;2024-03-02T05:30:05;11.20;50.90
11239;DHT22;5677;48.488;13.436;2024-03-02T05:32:34;11.20;50.80
11239;DHT22;5677;48.488;13.436;2024-03-02T05:35:00;11.20;50.90
11239;DHT22;5677;48.488;13.436;2024-03-02T05:37:28;11.20;50.90
11239;DHT22;5677;48.488;13.436;2024-03-02T05:39:55;11.20;50.90
11239;DHT22;5677;48.488;13.436;2024-03-02T05:42:22;11.10;50.90
11239;DHT22;5677;48.488;13.436;2024-03-02T05:44:48;11.20;50.90
11239;DHT22;5677;48.488;13.436;2024-03-02T05:47:15;11.20;50.90
11239;DHT22;5677;48.488;13.436;2024-03-02T05:49:43;11.10;50.90
11239;DHT22;5677;48.488;13.436;2024-03-02T05:52:10;11.10;50.90
11239;DHT22;5677;48.488;13.436;2024-03-02T05:54:37;11.10;50.90
11239;DHT22;5677;48.488;13.436;2024-03-02T05:57:04;11.10;50.90
11239;DHT22;5677;48.488;13.436;2024-03-02T05:59:52;11.10;50.90
11239;DHT22;5677;48.488;13.436;2024-03-02T06:02:19;11.10;50.90
11239;DHT22;5677;48.488;13.436;2024-03-02T06:04:47;11.10;50.90
11239;DHT22;5677;48.488;13.436;2024-03-02T06:07:14;11.10;50.90
11239;DHT22;5677;48.488;13.436;2024-03-02T06:09:41;11.10;50.90
11239;DHT22;5677;48.488;13.436;2024-03-02T06:12:08;11.10;50.90
11239;DHT22;5677;48.488;13.436;2024-03-02T06:14:35;11.10;50.90
11239;DHT22;5677;48.488;13.436;2024-03-02T06:17:01;11.10;51.00
11239;DHT22;5677;48.488;13.436;2024-03-02T06:19:28;11.10;51.00
11239;DHT22;5677;48.488;13.436;2024-03-02T06:21:56;11.10;50.90
11239;DHT22;5677;48.488;13.436;2024-03-02T06:24:23;11.10;51.00
11239;DHT22;5677;48.488;13.436;2024-03-02T06:26:51;11.10;51.00
11239;DHT22;5677;48.488;13.436;2024-03-02T06:29:18;11.00;50.90
11239;DHT22;5677;48.488;13.436;2024-03-02T06:31:45;11.10;51.10
11239;DHT22;5677;48.488;13.436;2024-03-02T06:34:12;11.00;51.00
11239;DHT22;5677;48.488;13.436;2024-03-02T06:36:38;11.10;51.10
11239;DHT22;5677;48.488;13.436;2024-03-02T06:39:06;11.10;51.10
11239;DHT22;5677;48.488;13.436;2024-03-02T06:41:34;11.10;51.10
11239;DHT22;5677;48.488;13.436;2024-03-02T06:44:00;11.10;51.10
11239;DHT22;5677;48.488;13.436;2024-03-02T06:46:27;11.10;51.10
11239;DHT22;5677;48.488;13.436;2024-03-02T06:48:54;11.00;51.10
11239;DHT22;5677;48.488;13.436;2024-03-02T06:51:21;11.00;51.10
11239;DHT22;5677;48.488;13.436;2024-03-02T06:53:48;11.10;51.10
11239;DHT22;5677;48.488;13.436;2024-03-02T06:56:16;11.10;51.20
11239;DHT22;5677;48.488;13.436;2024-03-02T06:58:42;11.10;51.10
11239;DHT22;5677;48.488;13.436;2024-03-02T07:01:09;11.10;51.10
11239;DHT22;5677;48.488;13.436;2024-03-02T07:03:36;11.00;51.00
11239;DHT22;5677;48.488;13.436;2024-03-02T07:06:04;11.10;51.10
11239;DHT22;5677;48.488;13.436;2024-03-02T07:08:31;11.10;51.10
11239;DHT22;5677;48.488;13.436;2024-03-02T07:10:58;11.10;51.10
11239;DHT22;5677;48.488;13.436;2024-03-02T07:13:26;11.10;51.10
11239;DHT22;5677;48.488;13.436;2024-03-02T07:15:53;11.10;51.10
11239;DHT22;5677;48.488;13.436;2024-03-02T07:18:37;11.10;51.80
11239;DHT22;5677;48.488;13.436;2024-03-02T07:21:07;11.00;51.00
11239;DHT22;5677;48.488;13.436;2024-03-02T07:23:34;11.10;51.10
11239;DHT22;5677;48.488;13.436;2024-03-02T07:26:01;11.00;51.10
11239;DHT22;5677;48.488;13.436;2024-03-02T07:28:30;11.00;51.10
11239;DHT22;5677;48.488;13.436;2024-03-02T07:30:58;11.00;51.10
11239;DHT22;5677;48.488;13.436;2024-03-02T07:33:25;11.00;51.10
11239;DHT22;5677;48.488;13.436;2024-03-02T07:35:52;11.00;51.10
11239;DHT22;5677;48.488;13.436;2024-03-02T07:38:20;11.00;51.80
11239;DHT22;5677;48.488;13.436;2024-03-02T07:40:47;11.10;51.20
11239;DHT22;5677;48.488;13.436;2024-03-02T07:43:16;11.10;51.20
11239;DHT22;5677;48.488;13.436;2024-03-02T07:45:44;11.00;51.10
11239;DHT22;5677;48.488;13.436;2024-03-02T07:48:10;11.10;51.20
11239;DHT22;5677;48.488;13.436;2024-03-02T07:50:37;11.00;51.10
11239;DHT22;5677;48.488;13.436;2024-03-02T07:53:04;11.10;51.20
11239;DHT22;5677;48.488;13.436;2024-03-02T07:55:33;11.10;51.20
11239;DHT22;5677;48.488;13.436;2024-03-02T07:58:00;11.10;51.10
11239;DHT22;5677;48.488;13.436;2024-03-02T08:05:39;11.10;51.10
11239;DHT22;5677;48.488;13.436;2024-03-02T08:08:06;11.10;51.10
11239;DHT22;5677;48.488;13.436;2024-03-02T08:10:33;11.20;51.00
11239;DHT22;5677;48.488;13.436;2024-03-02T08:13:00;11.20;50.80
11239;DHT22;5677;48.488;13.436;2024-03-02T08:15:26;11.20;50.70
11239;DHT22;5677;48.488;13.436;2024-03-02T08:17:53;11.30;50.70
11239;DHT22;5677;48.488;13.436;2024-03-02T08:20:20;11.30;50.60
11239;DHT22;5677;48.488;13.436;2024-03-02T08:22:48;11.30;50.60
11239;DHT22;5677;48.488;13.436;2024-03-02T08:25:15;11.30;50.60
11239;DHT22;5677;48.488;13.436;2024-03-02T08:27:42;11.30;50.60
11239;DHT22;5677;48.488;13.436;2024-03-02T08:30:10;11.30;50.60
11239;DHT22;5677;48.488;13.436;2024-03-02T08:32:37;11.30;50.60
11239;DHT22;5677;48.488;13.436;2024-03-02T08:35:05;11.30;50.60
11239;DHT22;5677;48.488;13.436;2024-03-02T08:37:32;11.30;50.60
11239;DHT22;5677;48.488;13.436;2024-03-02T08:40:00;11.20;50.80
11239;DHT22;5677;48.488;13.436;2024-03-02T08:42:29;11.30;54.90
11239;DHT22;5677;48.488;13.436;2024-03-02T08:44:56;11.20;56.00
11239;DHT22;5677;48.488;13.436;2024-03-02T08:47:22;11.20;55.00
11239;DHT22;5677;48.488;13.436;2024-03-02T09:00:13;11.50;54.50
11239;DHT22;5677;48.488;13.436;2024-03-02T09:02:39;11.50;54.70
11239;DHT22;5677;48.488;13.436;2024-03-02T09:05:07;11.60;54.40
11239;DHT22;5677;48.488;13.436;2024-03-02T09:07:34;11.60;54.20
11239;DHT22;5677;48.488;13.436;2024-03-02T09:10:01;11.70;54.60
11239;DHT22;5677;48.488;13.436;2024-03-02T09:12:27;11.70;54.90
11239;DHT22;5677;48.488;13.436;2024-03-02T09:14:54;11.70;55.00
11239;DHT22;5677;48.488;13.436;2024-03-02T09:17:22;11.80;55.20
11239;DHT22;5677;48.488;13.436;2024-03-02T09:19:49;11.80;54.50
11239;DHT22;5677;48.488;13.436;2024-03-02T09:22:18;11.90;53.00
11239;DHT22;5677;48.488;13.436;2024-03-02T09:24:45;11.80;50.30
11239;DHT22;5677;48.488;13.436;2024-03-02T09:27:11;11.90;49.20
11239;DHT22;5677;48.488;13.436;2024-03-02T09:29:38;11.90;49.10
11239;DHT22;5677;48.488;13.436;2024-03-02T09:32:06;11.90;49.00
11239;DHT22;5677;48.488;13.436;2024-03-02T09:34:35;11.90;49.00
11239;DHT22;5677;48.488;13.436;2024-03-02T09:37:01;11.90;48.90
11239;DHT22;5677;48.488;13.436;2024-03-02T09:39:29;11.90;48.90
11239;DHT22;5677;48.488;13.436;2024-03-02T09:41:56;12.00;48.90
11239;DHT22;5677;48.488;13.436;2024-03-02T09:44:24;12.00;48.90
11239;DHT22;5677;48.488;13.436;2024-03-02T09:46:51;12.00;48.90
11239;DHT22;5677;48.488;13.436;2024-03-02T09:49:18;11.90;48.90
11239;DHT22;5677;48.488;13.436;2024-03-02T09:51:47;12.00;48.90
11239;DHT22;5677;48.488;13.436;2024-03-02T09:54:15;12.00;48.90
11239;DHT22;5677;48.488;13.436;2024-03-02T09:56:42;12.00;48.90
11239;DHT22;5677;48.488;13.436;2024-03-02T09:59:09;12.00;48.90
11239;DHT22;5677;48.488;13.436;2024-03-02T10:01:36;12.00;48.90
11239;DHT22;5677;48.488;13.436;2024-03-02T10:04:03;12.00;48.80
11239;DHT22;5677;48.488;13.436;2024-03-02T10:06:31;12.00;48.80
11239;DHT22;5677;48.488;13.436;2024-03-02T10:08:59;12.00;48.80
11239;DHT22;5677;48.488;13.436;2024-03-02T10:11:27;12.00;48.80
11239;DHT22;5677;48.488;13.436;2024-03-02T10:14:04;12.00;48.90
11239;DHT22;5677;48.488;13.436;2024-03-02T10:16:34;12.00;48.90
11239;DHT22;5677;48.488;13.436;2024-03-02T10:19:15;11.90;49.00
11239;DHT22;5677;48.488;13.436;2024-03-02T10:21:43;11.90;49.00
11239;DHT22;5677;48.488;13.436;2024-03-02T10:24:11;12.00;49.00
11239;DHT22;5677;48.488;13.436;2024-03-02T10:26:38;11.90;49.00
11239;DHT22;5677;48.488;13.436;2024-03-02T10:29:05;12.00;49.00
11239;DHT22;5677;48.488;13.436;2024-03-02T10:31:32;11.90;49.10
11239;DHT22;5677;48.488;13.436;2024-03-02T10:33:59;12.00;49.10
11239;DHT22;5677;48.488;13.436;2024-03-02T10:36:28;12.00;49.00
11239;DHT22;5677;48.488;13.436;2024-03-02T10:38:56;11.90;49.00
11239;DHT22;5677;48.488;13.436;2024-03-02T10:41:26;12.00;49.00
11239;DHT22;5677;48.488;13.436;2024-03-02T10:43:53;11.90;49.00
11239;DHT22;5677;48.488;13.436;2024-03-02T10:46:28;11.90;49.00
11239;DHT22;5677;48.488;13.436;2024-03-02T10:48:55;11.90;49.10
11239;DHT22;5677;48.488;13.436;2024-03-02T10:51:24;11.90;49.10
11239;DHT22;5677;48.488;13.436;2024-03-02T10:53:51;11.90;49.20
11239;DHT22;5677;48.488;13.436;2024-03-02T10:56:22;11.90;49.20
11239;DHT22;5677;48.488;13.436;2024-03-02T10:58:58;11.90;49.20
11239;DHT22;5677;48.488;13.436;2024-03-02T11:01:29;11.90;49.20
11239;DHT22;5677;48.488;13.436;2024-03-02T11:03:58;11.90;49.30
11239;DHT22;5677;48.488;13.436;2024-03-02T11:06:26;11.90;49.30
11239;DHT22;5677;48.488;13.436;2024-03-02T11:08:55;11.90;49.30
11239;DHT22;5677;48.488;13.436;2024-03-02T11:11:30;11.90;49.30
11239;DHT22;5677;48.488;13.436;2024-03-02T11:14:01;11.90;49.30
11239;DHT22;5677;48.488;13.436;2024-03-02T11:16:35;11.90;49.30
11239;DHT22;5677;48.488;13.436;2024-03-02T11:19:03;11.90;49.30
11239;DHT22;5677;48.488;13.436;2024-03-02T11:21:31;11.90;49.30
11239;DHT22;5677;48.488;13.436;2024-03-02T11:23:58;11.90;49.40
11239;DHT22;5677;48.488;13.436;2024-03-02T11:26:25;11.90;49.40
11239;DHT22;5677;48.488;13.436;2024-03-02T11:28:54;11.90;49.40
11239;DHT22;5677;48.488;13.436;2024-03-02T11:31:22;11.90;49.40
11239;DHT22;5677;48.488;13.436;2024-03-02T11:34:29;11.90;49.40
11239;DHT22;5677;48.488;13.436;2024-03-02T11:36:55;12.00;49.40
11239;DHT22;5677;48.488;13.436;2024-03-02T11:39:22;11.90;49.50
11239;DHT22;5677;48.488;13.436;2024-03-02T11:41:49;11.90;49.50
11239;DHT22;5677;48.488;13.436;2024-03-02T11:44:16;11.90;49.50
11239;DHT22;5677;48.488;13.436;2024-03-02T11:46:48;12.00;49.40
11239;DHT22;5677;48.488;13.436;2024-03-02T11:49:36;11.90;49.50
11239;DHT22;5677;48.488;13.436;2024-03-02T11:52:04;12.00;49.50
11239;DHT22;5677;48.488;13.436;2024-03-02T11:54:32;11.90;49.40
11239;DHT22;5677;48.488;13.436;2024-03-02T11:57:01;12.00;49.40
11239;DHT22;5677;48.488;13.436;2024-03-02T11:59:29;12.00;49.40
11239;DHT22;5677;48.488;13.436;2024-03-02T12:01:58;12.00;49.40
11239;DHT22;5677;48.488;13.436;2024-03-02T12:04:25;12.00;49.40
11239;DHT22;5677;48.488;13.436;2024-03-02T12:06:54;12.00;49.40
11239;DHT22;5677;48.488;13.436;2024-03-02T12:09:22;12.00;49.40
11239;DHT22;5677;48.488;13.436;2024-03-02T12:12:01;12.00;49.40
11239;DHT22;5677;48.488;13.436;2024-03-02T12:14:29;12.00;49.30
11239;DHT22;5677;48.488;13.436;2024-03-02T12:16:57;12.10;49.40
11239;DHT22;5677;48.488;13.436;2024-03-02T12:19:24;12.10;49.50
11239;DHT22;5677;48.488;13.436;2024-03-02T12:21:51;12.10;49.40
11239;DHT22;5677;48.488;13.436;2024-03-02T12:24:18;12.10;49.50
11239;DHT22;5677;48.488;13.436;2024-03-02T12:26:45;12.10;49.50
11239;DHT22;5677;48.488;13.436;2024-03-02T12:29:13;12.10;49.50
11239;DHT22;5677;48.488;13.436;2024-03-02T12:31:40;12.10;49.40
11239;DHT22;5677;48.488;13.436;2024-03-02T12:34:10;12.10;49.40
11239;DHT22;5677;48.488;13.436;2024-03-02T12:36:38;12.10;49.40
11239;DHT22;5677;48.488;13.436;2024-03-02T12:39:05;12.10;49.50
11239;DHT22;5677;48.488;13.436;2024-03-02T12:41:31;12.10;49.50
11239;DHT22;5677;48.488;13.436;2024-03-02T12:43:58;12.10;49.50
11239;DHT22;5677;48.488;13.436;2024-03-02T12:46:25;12.10;49.50
11239;DHT22;5677;48.488;13.436;2024-03-02T12:48:51;12.10;49.50
11239;DHT22;5677;48.488;13.436;2024-03-02T12:51:20;12.10;49.50
11239;DHT22;5677;48.488;13.436;2024-03-02T12:53:53;12.10;49.50
11239;DHT22;5677;48.488;13.436;2024-03-02T12:56:20;12.10;49.50
11239;DHT22;5677;48.488;13.436;2024-03-02T12:58:46;12.10;49.50
11239;DHT22;5677;48.488;13.436;2024-03-02T13:01:14;12.10;49.50
11239;DHT22;5677;48.488;13.436;2024-03-02T13:03:44;12.10;49.60
11239;DHT22;5677;48.488;13.436;2024-03-02T13:06:11;12.10;49.60
11239;DHT22;5677;48.488;13.436;2024-03-02T13:08:39;12.10;49.60
11239;DHT22;5677;48.488;13.436;2024-03-02T13:11:06;12.10;49.60
11239;DHT22;5677;48.488;13.436;2024-03-02T13:13:32;12.10;49.60
11239;DHT22;5677;48.488;13.436;2024-03-02T13:16:00;12.20;49.70
11239;DHT22;5677;48.488;13.436;2024-03-02T13:18:28;12.20;49.90
11239;DHT22;5677;48.488;13.436;2024-03-02T13:20:56;12.20;52.80
11239;DHT22;5677;48.488;13.436;2024-03-02T13:23:23;12.20;53.10
11239;DHT22;5677;48.488;13.436;2024-03-02T13:25:51;12.30;53.30
11239;DHT22;5677;48.488;13.436;2024-03-02T13:28:18;12.30;53.10
11239;DHT22;5677;48.488;13.436;2024-03-02T13:30:44;12.30;52.90
11239;DHT22;5677;48.488;13.436;2024-03-02T13:33:11;12.30;52.70
11239;DHT22;5677;48.488;13.436;2024-03-02T13:35:38;12.30;52.60
11239;DHT22;5677;48.488;13.436;2024-03-02T13:38:05;12.30;53.10
11239;DHT22;5677;48.488;13.436;2024-03-02T13:40:31;12.30;52.20
11239;DHT22;5677;48.488;13.436;2024-03-02T13:43:02;12.30;52.10
11239;DHT22;5677;48.488;13.436;2024-03-02T13:45:29;12.30;52.90
11239;DHT22;5677;48.488;13.436;2024-03-02T13:47:56;12.30;53.60
11239;DHT22;5677;48.488;13.436;2024-03-02T13:50:23;12.30;54.10
11239;DHT22;5677;48.488;13.436;2024-03-02T13:52:49;12.30;55.20
11239;DHT22;5677;48.488;13.436;2024-03-02T13:55:16;12.40;55.80
11239;DHT22;5677;48.488;13.436;2024-03-02T13:57:43;12.40;55.50
11239;DHT22;5677;48.488;13.436;2024-03-02T14:00:12;12.40;55.60
11239;DHT22;5677;48.488;13.436;2024-03-02T14:02:40;12.50;55.80
11239;DHT22;5677;48.488;13.436;2024-03-02T14:05:06;12.40;56.00
11239;DHT22;5677;48.488;13.436;2024-03-02T14:07:37;12.50;55.80
11239;DHT22;5677;48.488;13.436;2024-03-02T14:10:04;12.50;55.80
11239;DHT22;5677;48.488;13.436;2024-03-02T14:12:31;12.50;55.60
11239;DHT22;5677;48.488;13.436;2024-03-02T14:14:58;12.50;55.80
11239;DHT22;5677;48.488;13.436;2024-03-02T14:17:29;12.50;55.60
11239;DHT22;5677;48.488;13.436;2024-03-02T14:19:57;12.50;55.60
11239;DHT22;5677;48.488;13.436;2024-03-02T14:22:24;12.50;55.80
11239;DHT22;5677;48.488;13.436;2024-03-02T14:24:51;12.50;55.70
11239;DHT22;5677;48.488;13.436;2024-03-02T14:27:18;12.50;55.60
11239;DHT22;5677;48.488;13.436;2024-03-02T14:29:44;12.50;55.40
11239;DHT22;5677;48.488;13.436;2024-03-02T14:32:11;12.50;55.30
11239;DHT22;5677;48.488;13.436;2024-03-02T14:34:39;12.50;55.10
11239;DHT22;5677;48.488;13.436;2024-03-02T14:37:06;12.50;55.00
11239;DHT22;5677;48.488;13.436;2024-03-02T14:39:33;12.50;54.80
11239;DHT22;5677;48.488;13.436;2024-03-02T14:42:00;12.50;54.80
11239;DHT22;5677;48.488;13.436;2024-03-02T14:44:26;12.40;54.60
11239;DHT22;5677;48.488;13.436;2024-03-02T14:46:53;12.40;54.50
11239;DHT22;5677;48.488;13.436;2024-03-02T14:49:20;12.40;54.50
11239;DHT22;5677;48.488;13.436;2024-03-02T14:51:48;12.40;54.50
11239;DHT22;5677;48.488;13.436;2024-03-02T14:54:15;12.40;54.50
11239;DHT22;5677;48.488;13.436;2024-03-02T14:56:41;12.40;55.20
11239;DHT22;5677;48.488;13.436;2024-03-02T14:59:08;12.40;54.40
11239;DHT22;5677;48.488;13.436;2024-03-02T15:01:36;12.40;54.40
11239;DHT22;5677;48.488;13.436;2024-03-02T15:04:02;12.40;54.40
11239;DHT22;5677;48.488;13.436;2024-03-02T15:06:29;12.40;54.40
11239;DHT22;5677;48.488;13.436;2024-03-02T15:08:57;12.40;54.30
11239;DHT22;5677;48.488;13.436;2024-03-02T15:11:24;12.40;54.10
11239;DHT22;5677;48.488;13.436;2024-03-02T15:13:51;12.40;54.00
11239;DHT22;5677;48.488;13.436;2024-03-02T15:16:18;12.40;54.10
11239;DHT22;5677;48.488;13.436;2024-03-02T15:18:45;12.40;54.00
11239;DHT22;5677;48.488;13.436;2024-03-02T15:21:12;12.40;53.80
11239;DHT22;5677;48.488;13.436;2024-03-02T15:23:38;12.40;53.70
11239;DHT22;5677;48.488;13.436;2024-03-02T15:26:06;12.40;53.70
11239;DHT22;5677;48.488;13.436;2024-03-02T15:28:33;12.40;53.60
11239;DHT22;5677;48.488;13.436;2024-03-02T15:31:00;12.40;53.50
11239;DHT22;5677;48.488;13.436;2024-03-02T15:33:26;12.40;53.40
11239;DHT22;5677;48.488;13.436;2024-03-02T15:35:58;12.40;53.40
11239;DHT22;5677;48.488;13.436;2024-03-02T15:38:24;12.40;53.60
11239;DHT22;5677;48.488;13.436;2024-03-02T15:40:51;12.40;53.60
11239;DHT22;5677;48.488;13.436;2024-03-02T15:43:19;12.40;53.50
11239;DHT22;5677;48.488;13.436;2024-03-02T15:45:46;12.40;53.40
11239;DHT22;5677;48.488;13.436;2024-03-02T15:48:12;12.40;53.30